[2025-02-26 00:00:00, 2025-02-26 23:59:59] previous next
| time | temperature | air pressure | humidity | solar radiation | wind speed |
|---|---|---|---|---|---|
| 2025-02-26 08:01:57 | 5.6 | 1009.0 | 99.0 | 36.8 | 0.3 |
| 2025-02-26 08:55:12 | 5.6 | 1009.7 | 99.0 | 66.1 | 1.3 |
| 2025-02-26 09:16:28 | 6.6 | 1009.7 | 99.0 | 110.2 | 1.8 |
| 2025-02-26 09:37:09 | 6.8 | 1010.0 | 99.0 | 59.5 | 2.1 |
| 2025-02-26 09:59:27 | 7.5 | 1010.0 | 99.0 | 74.5 | 1.7 |
| 2025-02-26 10:19:27 | 9.1 | 1009.7 | 93.0 | 54.7 | 1.4 |
| 2025-02-26 10:39:26 | 9.7 | 1009.3 | 86.0 | 49.2 | 1.0 |
| 2025-02-26 10:59:26 | 10.0 | 1009.3 | 84.0 | 68.8 | 2.4 |
| 2025-02-26 11:19:26 | 11.2 | 1009.3 | 79.0 | 96.2 | 1.8 |
| 2025-02-26 11:39:25 | 11.4 | 1009.0 | 77.0 | 120.9 | 1.1 |
| 2025-02-26 11:59:25 | 10.8 | 1009.0 | 76.0 | 316.5 | 2.0 |
| 2025-02-26 12:19:26 | 10.8 | 1009.0 | 77.0 | 92.9 | 2.2 |
| 2025-02-26 12:39:25 | 12.8 | 1008.7 | 68.0 | 320.4 | 3.8 |
| 2025-02-26 12:59:26 | 11.9 | 1008.7 | 69.0 | 193.3 | 2.2 |
| 2025-02-26 13:20:35 | 11.3 | 1008.3 | 71.0 | 68.3 | 1.5 |
| 2025-02-26 13:44:38 | 12.5 | 1008.3 | 69.0 | 89.0 | 2.7 |
| 2025-02-26 14:04:38 | 12.8 | 1008.0 | 66.0 | 83.7 | 4.1 |
| 2025-02-26 14:24:38 | 11.9 | 1008.0 | 66.0 | 152.7 | 3.2 |
| 2025-02-26 14:44:38 | 11.3 | 1007.7 | 68.0 | 139.8 | 1.0 |
| 2025-02-26 15:04:38 | 11.3 | 1007.7 | 66.0 | 158.0 | 1.8 |
CSV export: /station/IWELLEN5/data?period=20250226T000000/20250226T235959&format=csv&tz=GMT